sensor_id;sensor_type;location;lat;lon;timestamp;pressure;altitude;pressure_sealevel;temperature;humidity
7760;BME280;3924;48.830;9.262;2023-03-23T00:01:07;98012.53;;;13.67;56.89
7760;BME280;3924;48.830;9.262;2023-03-23T00:03:36;98015.38;;;13.71;56.67
7760;BME280;3924;48.830;9.262;2023-03-23T00:06:01;98012.34;;;13.72;56.70
7760;BME280;3924;48.830;9.262;2023-03-23T00:08:38;98009.59;;;13.72;56.44
7760;BME280;3924;48.830;9.262;2023-03-23T00:11:18;98019.06;;;13.75;56.60
7760;BME280;3924;48.830;9.262;2023-03-23T00:13:46;98014.75;;;13.74;56.75
7760;BME280;3924;48.830;9.262;2023-03-23T00:16:12;98006.88;;;13.72;56.74
7760;BME280;3924;48.830;9.262;2023-03-23T00:18:48;98014.59;;;13.70;56.85
7760;BME280;3924;48.830;9.262;2023-03-23T00:21:19;98007.56;;;13.69;56.79
7760;BME280;3924;48.830;9.262;2023-03-23T00:23:44;98011.41;;;13.68;56.68
7760;BME280;3924;48.830;9.262;2023-03-23T00:26:11;98005.94;;;13.68;57.03
7760;BME280;3924;48.830;9.262;2023-03-23T00:28:36;97999.72;;;13.67;56.98
7760;BME280;3924;48.830;9.262;2023-03-23T00:31:05;97995.06;;;13.68;56.81
7760;BME280;3924;48.830;9.262;2023-03-23T00:33:33;97994.25;;;13.67;57.01
7760;BME280;3924;48.830;9.262;2023-03-23T00:36:07;97989.59;;;13.68;57.00
7760;BME280;3924;48.830;9.262;2023-03-23T00:38:33;97985.75;;;13.69;56.96
7760;BME280;3924;48.830;9.262;2023-03-23T00:40:59;97978.72;;;13.68;57.04
7760;BME280;3924;48.830;9.262;2023-03-23T00:43:28;97980.78;;;13.71;56.84
7760;BME280;3924;48.830;9.262;2023-03-23T00:45:54;97975.81;;;13.73;56.96
7760;BME280;3924;48.830;9.262;2023-03-23T00:48:21;97968.75;;;13.72;56.91
7760;BME280;3924;48.830;9.262;2023-03-23T00:50:47;97974.19;;;13.72;56.82
7760;BME280;3924;48.830;9.262;2023-03-23T00:53:13;97973.88;;;13.74;56.75
7760;BME280;3924;48.830;9.262;2023-03-23T00:55:41;97963.78;;;13.74;56.75
7760;BME280;3924;48.830;9.262;2023-03-23T00:58:06;97968.56;;;13.77;56.60
7760;BME280;3924;48.830;9.262;2023-03-23T01:00:32;97967.44;;;13.78;56.55
7760;BME280;3924;48.830;9.262;2023-03-23T01:02:57;97960.41;;;13.77;56.57
7760;BME280;3924;48.830;9.262;2023-03-23T01:05:23;97965.22;;;13.80;56.33
7760;BME280;3924;48.830;9.262;2023-03-23T01:07:48;97955.41;;;13.79;56.64
7760;BME280;3924;48.830;9.262;2023-03-23T01:10:14;97949.97;;;13.79;56.36
7760;BME280;3924;48.830;9.262;2023-03-23T01:12:44;97955.41;;;13.79;56.27
7760;BME280;3924;48.830;9.262;2023-03-23T01:15:15;97954.31;;;13.80;56.31
7760;BME280;3924;48.830;9.262;2023-03-23T01:17:42;97952.69;;;13.79;56.29
7760;BME280;3924;48.830;9.262;2023-03-23T01:20:08;97949.50;;;13.77;56.13
7760;BME280;3924;48.830;9.262;2023-03-23T01:22:35;97942.00;;;13.74;56.39
7760;BME280;3924;48.830;9.262;2023-03-23T01:25:00;97946.78;;;13.77;56.25
7760;BME280;3924;48.830;9.262;2023-03-23T01:27:25;97933.94;;;13.78;56.05
7760;BME280;3924;48.830;9.262;2023-03-23T01:29:51;97933.59;;;13.79;55.96
7760;BME280;3924;48.830;9.262;2023-03-23T01:32:16;97935.22;;;13.80;55.93
7760;BME280;3924;48.830;9.262;2023-03-23T01:34:42;97934.09;;;13.81;55.98
7760;BME280;3924;48.830;9.262;2023-03-23T01:37:08;97930.88;;;13.79;55.94
7760;BME280;3924;48.830;9.262;2023-03-23T01:39:35;97934.09;;;13.81;55.89
7760;BME280;3924;48.830;9.262;2023-03-23T01:42:01;97923.19;;;13.81;56.02
7760;BME280;3924;48.830;9.262;2023-03-23T01:46:55;97911.81;;;13.79;56.01
7760;BME280;3924;48.830;9.262;2023-03-23T01:49:28;97912.94;;;13.78;55.85
7760;BME280;3924;48.830;9.262;2023-03-23T01:52:04;97914.41;;;13.76;55.85
7760;BME280;3924;48.830;9.262;2023-03-23T01:54:35;97913.47;;;13.72;55.77
7760;BME280;3924;48.830;9.262;2023-03-23T01:57:04;97915.09;;;13.73;55.79
7760;BME280;3924;48.830;9.262;2023-03-23T01:59:33;97912.38;;;13.73;55.79
7760;BME280;3924;48.830;9.262;2023-03-23T02:02:00;97914.75;;;13.74;55.90
7760;BME280;3924;48.830;9.262;2023-03-23T02:04:27;97919.06;;;13.75;55.59
7760;BME280;3924;48.830;9.262;2023-03-23T02:06:53;97921.47;;;13.77;55.55
7760;BME280;3924;48.830;9.262;2023-03-23T02:09:19;97926.91;;;13.77;55.78
7760;BME280;3924;48.830;9.262;2023-03-23T02:11:45;97920.66;;;13.76;55.69
7760;BME280;3924;48.830;9.262;2023-03-23T02:14:13;97908.16;;;13.75;55.38
7760;BME280;3924;48.830;9.262;2023-03-23T02:16:44;97916.69;;;13.74;55.52
7760;BME280;3924;48.830;9.262;2023-03-23T02:35:03;97909.47;;;13.69;55.42
7760;BME280;3924;48.830;9.262;2023-03-23T02:37:07;97897.00;;;13.68;55.57
7760;BME280;3924;48.830;9.262;2023-03-23T02:42:08;97884.97;;;13.69;55.43
7760;BME280;3924;48.830;9.262;2023-03-23T02:44:36;97872.28;;;13.73;55.53
7760;BME280;3924;48.830;9.262;2023-03-23T02:47:06;97862.84;;;13.71;55.38
7760;BME280;3924;48.830;9.262;2023-03-23T02:49:35;97853.41;;;13.68;55.43
7760;BME280;3924;48.830;9.262;2023-03-23T02:52:05;97867.38;;;13.66;55.68
7760;BME280;3924;48.830;9.262;2023-03-23T02:54:32;97862.22;;;13.65;55.53
7760;BME280;3924;48.830;9.262;2023-03-23T02:56:59;97864.16;;;13.64;55.68
7760;BME280;3924;48.830;9.262;2023-03-23T02:59:24;97864.50;;;13.63;55.77
7760;BME280;3924;48.830;9.262;2023-03-23T03:01:57;97854.72;;;13.62;55.67
7760;BME280;3924;48.830;9.262;2023-03-23T03:04:25;97851.22;;;13.61;55.78
7760;BME280;3924;48.830;9.262;2023-03-23T03:10:09;97845.75;;;13.61;55.92
7760;BME280;3924;48.830;9.262;2023-03-23T03:18:44;97847.81;;;13.64;55.97
7760;BME280;3924;48.830;9.262;2023-03-23T03:21:12;97843.94;;;13.65;55.97
7760;BME280;3924;48.830;9.262;2023-03-23T03:23:42;97845.09;;;13.64;55.84
7760;BME280;3924;48.830;9.262;2023-03-23T03:26:11;97848.59;;;13.65;55.82
7760;BME280;3924;48.830;9.262;2023-03-23T03:28:38;97841.44;;;13.60;56.19
7760;BME280;3924;48.830;9.262;2023-03-23T03:31:05;97843.38;;;13.60;56.13
7760;BME280;3924;48.830;9.262;2023-03-23T03:33:32;97843.38;;;13.60;56.14
7760;BME280;3924;48.830;9.262;2023-03-23T03:36:03;97842.25;;;13.61;56.08
7760;BME280;3924;48.830;9.262;2023-03-23T03:38:41;97848.16;;;13.63;56.35
7760;BME280;3924;48.830;9.262;2023-03-23T03:41:07;97850.06;;;13.62;56.09
7760;BME280;3924;48.830;9.262;2023-03-23T03:43:33;97848.81;;;13.60;56.27
7760;BME280;3924;48.830;9.262;2023-03-23T03:45:58;97852.19;;;13.57;56.32
7760;BME280;3924;48.830;9.262;2023-03-23T03:48:23;97845.81;;;13.53;56.43
7760;BME280;3924;48.830;9.262;2023-03-23T03:50:49;97844.41;;;13.47;56.63
7760;BME280;3924;48.830;9.262;2023-03-23T03:53:17;97841.88;;;13.41;56.88
7760;BME280;3924;48.830;9.262;2023-03-23T03:55:43;97835.28;;;13.43;56.98
7760;BME280;3924;48.830;9.262;2023-03-23T03:58:14;97825.19;;;13.43;56.91
7760;BME280;3924;48.830;9.262;2023-03-23T04:00:39;97829.84;;;13.43;56.98
7760;BME280;3924;48.830;9.262;2023-03-23T04:03:06;97831.44;;;13.44;57.02
7760;BME280;3924;48.830;9.262;2023-03-23T04:05:32;97836.88;;;13.44;57.02
7760;BME280;3924;48.830;9.262;2023-03-23T04:07:58;97827.56;;;13.45;57.13
7760;BME280;3924;48.830;9.262;2023-03-23T04:10:28;97828.41;;;13.45;57.09
7760;BME280;3924;48.830;9.262;2023-03-23T04:12:54;97829.19;;;13.46;57.51
7760;BME280;3924;48.830;9.262;2023-03-23T04:15:20;97833.50;;;13.47;57.29
7760;BME280;3924;48.830;9.262;2023-03-23T04:17:45;97833.19;;;13.48;57.29
7760;BME280;3924;48.830;9.262;2023-03-23T04:20:11;97838.63;;;13.48;57.04
7760;BME280;3924;48.830;9.262;2023-03-23T04:22:44;97842.16;;;13.49;57.15
7760;BME280;3924;48.830;9.262;2023-03-23T04:25:11;97843.41;;;13.51;57.25
7760;BME280;3924;48.830;9.262;2023-03-23T04:27:38;97843.56;;;13.55;57.19
7760;BME280;3924;48.830;9.262;2023-03-23T04:30:05;97838.09;;;13.55;57.02
7760;BME280;3924;48.830;9.262;2023-03-23T04:32:31;97843.88;;;13.53;56.97
7760;BME280;3924;48.830;9.262;2023-03-23T04:34:59;97852.84;;;13.54;57.23
7760;BME280;3924;48.830;9.262;2023-03-23T04:37:26;97841.97;;;13.54;57.19
7760;BME280;3924;48.830;9.262;2023-03-23T04:39:55;97840.38;;;13.53;57.25
7760;BME280;3924;48.830;9.262;2023-03-23T04:42:27;97837.97;;;13.51;57.18
7760;BME280;3924;48.830;9.262;2023-03-23T04:44:53;97838.75;;;13.52;57.35
7760;BME280;3924;48.830;9.262;2023-03-23T04:47:19;97834.44;;;13.51;57.14
7760;BME280;3924;48.830;9.262;2023-03-23T04:49:45;97840.03;;;13.54;57.36
7760;BME280;3924;48.830;9.262;2023-03-23T04:52:10;97838.09;;;13.55;57.22
7760;BME280;3924;48.830;9.262;2023-03-23T04:54:36;97836.19;;;13.55;57.30
7760;BME280;3924;48.830;9.262;2023-03-23T04:57:02;97830.06;;;13.58;57.39
7760;BME280;3924;48.830;9.262;2023-03-23T04:59:28;97842.25;;;13.61;57.15
7760;BME280;3924;48.830;9.262;2023-03-23T05:01:56;97847.34;;;13.62;57.11
7760;BME280;3924;48.830;9.262;2023-03-23T05:04:21;97842.25;;;13.61;57.14
7760;BME280;3924;48.830;9.262;2023-03-23T05:06:48;97841.78;;;13.59;57.23
7760;BME280;3924;48.830;9.262;2023-03-23T05:09:13;97843.38;;;13.60;57.23
7760;BME280;3924;48.830;9.262;2023-03-23T05:11:39;97843.38;;;13.60;57.13
7760;BME280;3924;48.830;9.262;2023-03-23T05:14:04;97834.41;;;13.59;57.23
7760;BME280;3924;48.830;9.262;2023-03-23T05:16:30;97837.59;;;13.61;57.35
7760;BME280;3924;48.830;9.262;2023-03-23T05:18:56;97833.88;;;13.66;57.23
7760;BME280;3924;48.830;9.262;2023-03-23T05:21:22;97832.41;;;13.68;57.18
7760;BME280;3924;48.830;9.262;2023-03-23T05:23:48;97837.06;;;13.68;57.08
7760;BME280;3924;48.830;9.262;2023-03-23T05:26:23;97828.91;;;13.68;56.97
7760;BME280;3924;48.830;9.262;2023-03-23T05:28:54;97835.13;;;13.68;57.20
7760;BME280;3924;48.830;9.262;2023-03-23T05:31:21;97830.50;;;13.69;57.24
7760;BME280;3924;48.830;9.262;2023-03-23T05:33:47;97833.22;;;13.69;57.36
7760;BME280;3924;48.830;9.262;2023-03-23T05:36:12;97827.75;;;13.69;57.26
7760;BME280;3924;48.830;9.262;2023-03-23T05:38:41;97830.94;;;13.71;57.08
7760;BME280;3924;48.830;9.262;2023-03-23T05:41:13;97830.81;;;13.67;57.26
7760;BME280;3924;48.830;9.262;2023-03-23T05:43:40;97837.06;;;13.68;57.39
7760;BME280;3924;48.830;9.262;2023-03-23T05:46:06;97832.75;;;13.67;57.56
7760;BME280;3924;48.830;9.262;2023-03-23T05:48:34;97827.31;;;13.67;57.46
7760;BME280;3924;48.830;9.262;2023-03-23T05:51:00;97835.47;;;13.67;57.40
7760;BME280;3924;48.830;9.262;2023-03-23T05:53:26;97835.78;;;13.65;57.37
7760;BME280;3924;48.830;9.262;2023-03-23T05:55:52;97839.34;;;13.66;57.56
7760;BME280;3924;48.830;9.262;2023-03-23T05:58:18;97838.50;;;13.65;57.57
7760;BME280;3924;48.830;9.262;2023-03-23T06:00:44;97851.81;;;13.67;57.37
7760;BME280;3924;48.830;9.262;2023-03-23T06:03:10;97846.38;;;13.67;57.80
7760;BME280;3924;48.830;9.262;2023-03-23T06:05:43;97855.81;;;13.69;57.69
7760;BME280;3924;48.830;9.262;2023-03-23T06:08:09;97853.53;;;13.72;57.46
7760;BME280;3924;48.830;9.262;2023-03-23T06:10:35;97860.25;;;13.74;57.53
7760;BME280;3924;48.830;9.262;2023-03-23T06:13:02;97857.88;;;13.73;57.52
7760;BME280;3924;48.830;9.262;2023-03-23T06:15:28;97860.59;;;13.73;57.57
7760;BME280;3924;48.830;9.262;2023-03-23T06:17:58;97868.91;;;13.76;57.53
7760;BME280;3924;48.830;9.262;2023-03-23T06:20:24;97870.50;;;13.77;57.69
7760;BME280;3924;48.830;9.262;2023-03-23T06:22:50;97874.81;;;13.78;57.65
7760;BME280;3924;48.830;9.262;2023-03-23T06:25:16;97877.06;;;13.76;57.77
7760;BME280;3924;48.830;9.262;2023-03-23T06:27:41;97881.38;;;13.77;57.77
7760;BME280;3924;48.830;9.262;2023-03-23T06:30:07;97878.53;;;13.74;58.14
7760;BME280;3924;48.830;9.262;2023-03-23T06:32:33;97886.38;;;13.75;58.10
7760;BME280;3924;48.830;9.262;2023-03-23T06:34:59;97887.19;;;13.76;57.82
7760;BME280;3924;48.830;9.262;2023-03-23T06:37:24;97887.50;;;13.74;57.86
7760;BME280;3924;48.830;9.262;2023-03-23T06:39:50;97884.00;;;13.74;57.88
7760;BME280;3924;48.830;9.262;2023-03-23T06:42:17;97886.72;;;13.74;58.04
7760;BME280;3924;48.830;9.262;2023-03-23T06:44:43;97898.41;;;13.74;57.91
7760;BME280;3924;48.830;9.262;2023-03-23T06:47:08;97902.72;;;13.75;58.00
7760;BME280;3924;48.830;9.262;2023-03-23T06:49:34;97898.06;;;13.76;58.09
7760;BME280;3924;48.830;9.262;2023-03-23T06:52:00;97902.06;;;13.78;58.14
7760;BME280;3924;48.830;9.262;2023-03-23T06:54:27;97892.09;;;13.82;58.01
7760;BME280;3924;48.830;9.262;2023-03-23T06:56:53;97899.41;;;13.90;57.93
7760;BME280;3924;48.830;9.262;2023-03-23T06:59:18;97897.91;;;14.02;57.80
7760;BME280;3924;48.830;9.262;2023-03-23T07:01:44;97897.50;;;14.12;57.83
7760;BME280;3924;48.830;9.262;2023-03-23T07:04:11;97913.16;;;14.23;57.48
7760;BME280;3924;48.830;9.262;2023-03-23T07:06:37;97913.25;;;14.27;57.57
7760;BME280;3924;48.830;9.262;2023-03-23T07:09:03;97913.75;;;14.29;57.36
7760;BME280;3924;48.830;9.262;2023-03-23T07:11:29;97916.47;;;14.29;57.63
7760;BME280;3924;48.830;9.262;2023-03-23T07:13:54;97907.81;;;14.27;57.62
7760;BME280;3924;48.830;9.262;2023-03-23T07:16:20;97919.53;;;14.28;57.82
7760;BME280;3924;48.830;9.262;2023-03-23T07:18:45;97915.53;;;14.25;57.73
7760;BME280;3924;48.830;9.262;2023-03-23T07:21:11;97923.72;;;14.25;57.96
7760;BME280;3924;48.830;9.262;2023-03-23T07:23:36;97925.97;;;14.23;58.21
7760;BME280;3924;48.830;9.262;2023-03-23T07:26:02;97929.84;;;14.22;57.80
7760;BME280;3924;48.830;9.262;2023-03-23T07:28:29;97938.81;;;14.22;58.10
7760;BME280;3924;48.830;9.262;2023-03-23T07:30:55;97935.59;;;14.20;58.10
7760;BME280;3924;48.830;9.262;2023-03-23T07:33:21;97943.47;;;14.22;58.17
7760;BME280;3924;48.830;9.262;2023-03-23T07:35:47;97942.78;;;14.25;58.11
7760;BME280;3924;48.830;9.262;2023-03-23T07:38:13;97951.94;;;14.29;57.90
7760;BME280;3924;48.830;9.262;2023-03-23T07:40:39;97963.28;;;14.31;57.84
7760;BME280;3924;48.830;9.262;2023-03-23T07:43:05;97967.75;;;14.36;57.70
7760;BME280;3924;48.830;9.262;2023-03-23T07:45:31;97967.53;;;14.41;57.62
7760;BME280;3924;48.830;9.262;2023-03-23T07:47:57;97966.56;;;14.45;57.72
7760;BME280;3924;48.830;9.262;2023-03-23T07:50:23;97965.59;;;14.50;57.30
7760;BME280;3924;48.830;9.262;2023-03-23T07:52:56;97970.97;;;14.59;57.12
7760;BME280;3924;48.830;9.262;2023-03-23T07:55:23;97971.03;;;14.71;57.04
7760;BME280;3924;48.830;9.262;2023-03-23T07:57:50;97969.97;;;14.84;56.70
7760;BME280;3924;48.830;9.262;2023-03-23T08:00:18;97973.22;;;14.98;56.40
7760;BME280;3924;48.830;9.262;2023-03-23T08:02:50;97961.66;;;15.14;56.23
7760;BME280;3924;48.830;9.262;2023-03-23T08:05:16;97969.75;;;15.22;55.80
7760;BME280;3924;48.830;9.262;2023-03-23T08:07:43;97970.69;;;15.26;55.78
7760;BME280;3924;48.830;9.262;2023-03-23T08:10:10;97971.94;;;15.29;55.88
7760;BME280;3924;48.830;9.262;2023-03-23T08:12:36;97980.59;;;15.31;55.68
7760;BME280;3924;48.830;9.262;2023-03-23T08:15:03;97982.66;;;15.34;55.55
7760;BME280;3924;48.830;9.262;2023-03-23T08:17:28;97978.91;;;15.39;55.48
7760;BME280;3924;48.830;9.262;2023-03-23T08:19:53;97980.50;;;15.40;55.46
7760;BME280;3924;48.830;9.262;2023-03-23T08:22:19;97991.53;;;15.43;55.42
7760;BME280;3924;48.830;9.262;2023-03-23T08:24:44;97983.03;;;15.45;55.33
7760;BME280;3924;48.830;9.262;2023-03-23T08:27:10;97987.00;;;15.47;55.16
7760;BME280;3924;48.830;9.262;2023-03-23T08:29:35;97984.72;;;15.49;55.39
7760;BME280;3924;48.830;9.262;2023-03-23T08:32:00;97993.41;;;15.51;55.38
7760;BME280;3924;48.830;9.262;2023-03-23T08:34:28;98002.69;;;15.50;55.43
7760;BME280;3924;48.830;9.262;2023-03-23T08:36:54;97996.44;;;15.50;55.45
7760;BME280;3924;48.830;9.262;2023-03-23T08:39:20;97993.41;;;15.51;55.52
7760;BME280;3924;48.830;9.262;2023-03-23T08:41:48;97990.31;;;15.53;55.50
7760;BME280;3924;48.830;9.262;2023-03-23T08:44:14;97992.25;;;15.52;55.43
7760;BME280;3924;48.830;9.262;2023-03-23T08:46:39;98007.06;;;15.51;55.51
7760;BME280;3924;48.830;9.262;2023-03-23T08:49:05;97999.53;;;15.48;55.69
7760;BME280;3924;48.830;9.262;2023-03-23T08:51:31;98005.66;;;15.45;55.75
7760;BME280;3924;48.830;9.262;2023-03-23T08:53:57;98007.91;;;15.43;55.91
7760;BME280;3924;48.830;9.262;2023-03-23T08:56:22;98013.38;;;15.43;55.77
7760;BME280;3924;48.830;9.262;2023-03-23T08:58:48;98009.84;;;15.43;56.02
7760;BME280;3924;48.830;9.262;2023-03-23T09:01:15;98019.19;;;15.42;56.09
7760;BME280;3924;48.830;9.262;2023-03-23T09:03:41;98024.19;;;15.40;56.11
7760;BME280;3924;48.830;9.262;2023-03-23T09:06:08;98018.41;;;15.41;56.14
7760;BME280;3924;48.830;9.262;2023-03-23T09:08:34;98030.56;;;15.44;56.13
7760;BME280;3924;48.830;9.262;2023-03-23T09:11:09;98025.25;;;15.47;56.25
7760;BME280;3924;48.830;9.262;2023-03-23T09:13:35;98029.38;;;15.53;55.85
7760;BME280;3924;48.830;9.262;2023-03-23T09:16:02;98028.16;;;15.63;55.65
7760;BME280;3924;48.830;9.262;2023-03-23T09:18:28;98028.53;;;15.74;55.84
7760;BME280;3924;48.830;9.262;2023-03-23T09:20:54;98030.00;;;15.83;55.53
7760;BME280;3924;48.830;9.262;2023-03-23T09:23:20;98034.56;;;15.92;55.54
7760;BME280;3924;48.830;9.262;2023-03-23T09:25:47;98041.75;;;15.96;55.34
7760;BME280;3924;48.830;9.262;2023-03-23T09:28:14;98025.13;;;16.01;55.59
7760;BME280;3924;48.830;9.262;2023-03-23T09:30:40;98038.59;;;16.06;55.48
7760;BME280;3924;48.830;9.262;2023-03-23T09:33:06;98041.56;;;16.13;55.08
7760;BME280;3924;48.830;9.262;2023-03-23T09:35:34;98040.84;;;16.17;55.44
7760;BME280;3924;48.830;9.262;2023-03-23T09:38:01;98050.44;;;16.10;55.61
7760;BME280;3924;48.830;9.262;2023-03-23T09:40:55;98045.16;;;16.05;55.61
7760;BME280;3924;48.830;9.262;2023-03-23T09:47:25;98037.31;;;16.16;55.56
7760;BME280;3924;48.830;9.262;2023-03-23T09:49:45;98050.53;;;16.26;55.58
7760;BME280;3924;48.830;9.262;2023-03-23T09:52:15;98062.16;;;16.23;55.75
7760;BME280;3924;48.830;9.262;2023-03-23T09:54:46;98041.66;;;16.17;55.68
7760;BME280;3924;48.830;9.262;2023-03-23T09:57:35;98048.84;;;16.09;56.05
7760;BME280;3924;48.830;9.262;2023-03-23T10:00:08;98058.63;;;16.10;55.86
7760;BME280;3924;48.830;9.262;2023-03-23T10:05:39;98061.25;;;16.19;55.85
7760;BME280;3924;48.830;9.262;2023-03-23T10:08:11;98067.63;;;16.23;55.64
7760;BME280;3924;48.830;9.262;2023-03-23T10:10:58;98060.91;;;16.33;55.77
7760;BME280;3924;48.830;9.262;2023-03-23T10:16:23;98063.41;;;16.38;55.65
7760;BME280;3924;48.830;9.262;2023-03-23T10:21:20;98069.91;;;16.46;55.63
7760;BME280;3924;48.830;9.262;2023-03-23T10:24:10;98077.19;;;16.54;55.50
7760;BME280;3924;48.830;9.262;2023-03-23T10:29:42;98067.97;;;16.58;55.42
7760;BME280;3924;48.830;9.262;2023-03-23T10:32:20;98075.25;;;16.66;55.39
7760;BME280;3924;48.830;9.262;2023-03-23T10:34:54;98078.81;;;16.79;55.07
7760;BME280;3924;48.830;9.262;2023-03-23T10:38:10;98073.75;;;16.93;55.06
7760;BME280;3924;48.830;9.262;2023-03-23T10:40:22;98064.00;;;17.08;54.77
7760;BME280;3924;48.830;9.262;2023-03-23T10:42:49;98080.00;;;17.06;54.68
7760;BME280;3924;48.830;9.262;2023-03-23T10:45:28;98078.44;;;16.93;55.03
7760;BME280;3924;48.830;9.262;2023-03-23T10:48:14;98084.41;;;16.71;55.47
7760;BME280;3924;48.830;9.262;2023-03-23T10:50:42;98075.50;;;16.49;55.90
7760;BME280;3924;48.830;9.262;2023-03-23T10:53:18;98080.53;;;16.35;56.37
7760;BME280;3924;48.830;9.262;2023-03-23T10:55:44;98076.44;;;16.29;56.39
7760;BME280;3924;48.830;9.262;2023-03-23T10:58:22;98086.09;;;16.26;56.72
7760;BME280;3924;48.830;9.262;2023-03-23T11:00:48;98076.44;;;16.29;56.28
7760;BME280;3924;48.830;9.262;2023-03-23T11:05:47;98068.88;;;16.38;56.50
7760;BME280;3924;48.830;9.262;2023-03-23T11:08:16;98072.56;;;16.42;56.17
7760;BME280;3924;48.830;9.262;2023-03-23T11:10:53;98070.47;;;16.39;56.45
7760;BME280;3924;48.830;9.262;2023-03-23T11:13:23;98066.38;;;16.33;56.65
7760;BME280;3924;48.830;9.262;2023-03-23T11:15:50;98068.00;;;16.34;56.53
7760;BME280;3924;48.830;9.262;2023-03-23T11:18:34;98061.38;;;16.35;56.97
7760;BME280;3924;48.830;9.262;2023-03-23T11:21:02;98070.03;;;16.37;56.82
7760;BME280;3924;48.830;9.262;2023-03-23T11:28:34;98069.94;;;16.33;56.90
7760;BME280;3924;48.830;9.262;2023-03-23T11:31:02;98073.13;;;16.23;57.42
7760;BME280;3924;48.830;9.262;2023-03-23T11:33:41;98072.53;;;16.18;57.52
7760;BME280;3924;48.830;9.262;2023-03-23T11:36:07;98069.00;;;16.17;57.68
7760;BME280;3924;48.830;9.262;2023-03-23T11:38:34;98054.97;;;16.19;57.52
7760;BME280;3924;48.830;9.262;2023-03-23T11:41:00;98051.34;;;16.27;57.43
7760;BME280;3924;48.830;9.262;2023-03-23T11:43:25;98050.88;;;16.37;57.28
7760;BME280;3924;48.830;9.262;2023-03-23T11:46:01;98044.25;;;16.50;57.14
7760;BME280;3924;48.830;9.262;2023-03-23T11:51:05;98049.47;;;16.67;57.11
7760;BME280;3924;48.830;9.262;2023-03-23T11:56:39;98056.34;;;16.74;57.03
7760;BME280;3924;48.830;9.262;2023-03-23T11:59:17;98053.38;;;16.79;56.94
7760;BME280;3924;48.830;9.262;2023-03-23T12:04:40;98043.78;;;16.85;57.03
7760;BME280;3924;48.830;9.262;2023-03-23T12:07:41;98042.38;;;16.91;56.38
7760;BME280;3924;48.830;9.262;2023-03-23T12:13:22;98041.81;;;16.85;56.87
7760;BME280;3924;48.830;9.262;2023-03-23T12:24:59;98031.09;;;16.92;56.79
7760;BME280;3924;48.830;9.262;2023-03-23T12:27:37;98029.25;;;16.97;56.25
7760;BME280;3924;48.830;9.262;2023-03-23T12:30:28;98037.13;;;16.98;56.45
7760;BME280;3924;48.830;9.262;2023-03-23T12:41:10;98029.94;;;17.21;55.63
7760;BME280;3924;48.830;9.262;2023-03-23T12:43:59;98022.38;;;17.31;55.34
7760;BME280;3924;48.830;9.262;2023-03-23T12:49:02;98010.47;;;17.39;55.39
7760;BME280;3924;48.830;9.262;2023-03-23T12:51:37;98013.22;;;17.39;55.32
7760;BME280;3924;48.830;9.262;2023-03-23T12:57:11;98020.88;;;17.33;55.33
7760;BME280;3924;48.830;9.262;2023-03-23T12:59:43;98008.22;;;17.29;55.15
7760;BME280;3924;48.830;9.262;2023-03-23T13:02:24;98007.78;;;17.27;54.95
7760;BME280;3924;48.830;9.262;2023-03-23T13:04:58;98005.75;;;17.23;55.32
7760;BME280;3924;48.830;9.262;2023-03-23T13:07:30;97996.19;;;17.17;55.55
7760;BME280;3924;48.830;9.262;2023-03-23T13:10:05;97997.81;;;17.06;55.86
7760;BME280;3924;48.830;9.262;2023-03-23T13:12:34;97995.59;;;16.96;56.33
7760;BME280;3924;48.830;9.262;2023-03-23T13:15:43;97990.38;;;16.91;56.56
7760;BME280;3924;48.830;9.262;2023-03-23T13:20:54;97989.66;;;16.94;56.89
7760;BME280;3924;48.830;9.262;2023-03-23T13:23:23;97987.03;;;16.98;56.91
7760;BME280;3924;48.830;9.262;2023-03-23T13:26:02;97980.94;;;17.04;56.88
7760;BME280;3924;48.830;9.262;2023-03-23T13:31:17;97973.97;;;17.07;57.22
7760;BME280;3924;48.830;9.262;2023-03-23T13:33:49;97974.09;;;17.10;57.33
7760;BME280;3924;48.830;9.262;2023-03-23T13:36:25;97972.69;;;17.16;57.37
7760;BME280;3924;48.830;9.262;2023-03-23T13:38:51;97974.28;;;17.17;57.37
7760;BME280;3924;48.830;9.262;2023-03-23T13:41:19;97957.72;;;17.14;57.66
7760;BME280;3924;48.830;9.262;2023-03-23T13:43:47;97962.66;;;17.08;57.91
7760;BME280;3924;48.830;9.262;2023-03-23T13:46:25;97966.09;;;17.05;58.11
7760;BME280;3924;48.830;9.262;2023-03-23T13:51:52;97970.16;;;16.95;58.53
7760;BME280;3924;48.830;9.262;2023-03-23T13:54:40;97960.91;;;16.88;58.76
7760;BME280;3924;48.830;9.262;2023-03-23T13:57:25;97966.00;;;16.74;59.31
7760;BME280;3924;48.830;9.262;2023-03-23T13:59:57;97948.19;;;16.67;59.58
7760;BME280;3924;48.830;9.262;2023-03-23T14:04:55;97942.88;;;16.59;59.86
7760;BME280;3924;48.830;9.262;2023-03-23T14:07:22;97952.22;;;16.58;60.16
7760;BME280;3924;48.830;9.262;2023-03-23T14:09:49;97940.47;;;16.57;60.23
7760;BME280;3924;48.830;9.262;2023-03-23T14:12:21;97940.47;;;16.57;59.97
7760;BME280;3924;48.830;9.262;2023-03-23T14:14:51;97937.75;;;16.57;60.39
7760;BME280;3924;48.830;9.262;2023-03-23T14:17:24;97938.91;;;16.56;60.51
7760;BME280;3924;48.830;9.262;2023-03-23T14:19:52;97939.34;;;16.58;60.47
7760;BME280;3924;48.830;9.262;2023-03-23T14:22:25;97929.53;;;16.57;60.58
7760;BME280;3924;48.830;9.262;2023-03-23T14:24:58;97927.25;;;16.59;60.71
7760;BME280;3924;48.830;9.262;2023-03-23T14:27:24;97920.63;;;16.60;60.87
7760;BME280;3924;48.830;9.262;2023-03-23T14:30:06;97919.03;;;16.59;60.86
7760;BME280;3924;48.830;9.262;2023-03-23T14:32:32;97915.16;;;16.60;60.84
7760;BME280;3924;48.830;9.262;2023-03-23T14:35:05;97919.50;;;16.61;60.85
7760;BME280;3924;48.830;9.262;2023-03-23T14:37:32;97908.88;;;16.60;61.19
7760;BME280;3924;48.830;9.262;2023-03-23T14:40:01;97921.78;;;16.59;61.19
7760;BME280;3924;48.830;9.262;2023-03-23T14:42:32;97918.47;;;16.54;61.29
7760;BME280;3924;48.830;9.262;2023-03-23T14:44:59;97922.47;;;16.56;61.23
7760;BME280;3924;48.830;9.262;2023-03-23T14:47:29;97918.78;;;16.77;60.48
7760;BME280;3924;48.830;9.262;2023-03-23T14:49:57;97913.44;;;16.96;59.97
7760;BME280;3924;48.830;9.262;2023-03-23T14:52:28;97905.06;;;17.05;59.50
7760;BME280;3924;48.830;9.262;2023-03-23T14:54:55;97916.22;;;17.12;59.02
7760;BME280;3924;48.830;9.262;2023-03-23T14:59:49;97922.91;;;17.14;58.88
7760;BME280;3924;48.830;9.262;2023-03-23T15:02:36;97921.44;;;17.17;58.47
7760;BME280;3924;48.830;9.262;2023-03-23T15:05:27;97913.66;;;17.19;58.44
7760;BME280;3924;48.830;9.262;2023-03-23T15:07:56;97924.97;;;17.17;58.11
7760;BME280;3924;48.830;9.262;2023-03-23T15:10:24;97916.28;;;17.15;57.89
7760;BME280;3924;48.830;9.262;2023-03-23T15:12:50;97913.22;;;17.17;57.46